createdAt,value
2019-01-21T00:00:50.225Z,1001.55
2019-01-21T00:01:56.062Z,1001.57
2019-01-21T00:03:01.939Z,1001.57
2019-01-21T00:04:07.818Z,1001.55
2019-01-21T00:05:13.688Z,1001.56
2019-01-21T00:06:19.625Z,1001.56
2019-01-21T00:07:25.435Z,1001.57
2019-01-21T00:08:31.304Z,1001.58
2019-01-21T00:09:36.706Z,1001.57
2019-01-21T00:10:43.071Z,1001.59
2019-01-21T00:11:48.926Z,1001.61
2019-01-21T00:12:54.802Z,1001.61
2019-01-21T00:14:00.683Z,1001.59
2019-01-21T00:15:06.556Z,1001.64
2019-01-21T00:16:12.436Z,1001.63
2019-01-21T00:17:22.326Z,1001.67
2019-01-21T00:18:24.159Z,1001.67
2019-01-21T00:19:30.034Z,1001.74
2019-01-21T00:20:35.908Z,1001.73
2019-01-21T00:21:41.780Z,1001.75
2019-01-21T00:22:47.667Z,1001.75
2019-01-21T00:23:53.613Z,1001.77
2019-01-21T00:24:59.390Z,1001.78
2019-01-21T00:26:06.242Z,1001.75
2019-01-21T00:27:11.120Z,1001.76
2019-01-21T00:28:16.991Z,1001.79
2019-01-21T00:29:22.870Z,1001.81
2019-01-21T00:30:29.717Z,1001.86
2019-01-21T00:31:34.594Z,1001.89
2019-01-21T00:32:40.457Z,1001.88
2019-01-21T00:33:46.315Z,1001.94
2019-01-21T00:34:52.202Z,1001.94
2019-01-21T00:35:58.052Z,1001.94
2019-01-21T00:37:03.922Z,1001.94
2019-01-21T00:38:09.793Z,1001.96
2019-01-21T00:39:15.655Z,1001.98
2019-01-21T00:40:21.625Z,1001.98
2019-01-21T00:41:27.721Z,1001.99
2019-01-21T00:42:33.270Z,1002.02
2019-01-21T00:43:39.126Z,1002.01
2019-01-21T00:44:45.008Z,1002.04
2019-01-21T00:45:50.857Z,1002.04
2019-01-21T00:46:56.261Z,1002.07
2019-01-21T00:48:02.593Z,1002.05
2019-01-21T00:49:08.469Z,1002.04
2019-01-21T00:50:14.324Z,1002.07
2019-01-21T00:51:20.182Z,1002.07
2019-01-21T00:52:26.068Z,1002.11
2019-01-21T00:53:31.932Z,1002.08
2019-01-21T00:54:37.804Z,1002.11
2019-01-21T00:55:43.666Z,1002.11
2019-01-21T00:56:49.652Z,1002.12
2019-01-21T00:57:55.408Z,1002.11
2019-01-21T00:59:01.268Z,1002.09
2019-01-21T01:00:07.127Z,1002.09
2019-01-21T01:01:12.995Z,1002.11
2019-01-21T01:02:18.884Z,1002.09
2019-01-21T01:03:24.753Z,1002.11
2019-01-21T01:04:30.592Z,1002.12
2019-01-21T01:05:36.503Z,1002.11
2019-01-21T01:06:42.362Z,1002.07
2019-01-21T01:07:48.221Z,1002.09
2019-01-21T01:08:54.070Z,1002.05
2019-01-21T01:09:59.941Z,1002.13
2019-01-21T01:11:05.803Z,1002.10
2019-01-21T01:12:11.682Z,1002.12
2019-01-21T01:13:17.632Z,1002.12
2019-01-21T01:14:23.693Z,1002.16
2019-01-21T01:15:29.237Z,1002.13
2019-01-21T01:16:35.147Z,1002.16
2019-01-21T01:17:40.985Z,1002.17
2019-01-21T01:18:46.838Z,1002.12
2019-01-21T01:19:52.708Z,1002.17
2019-01-21T01:20:59.022Z,1002.15
2019-01-21T01:22:04.402Z,1002.16
2019-01-21T01:23:10.273Z,1002.19
2019-01-21T01:24:16.144Z,1002.18
2019-01-21T01:25:21.997Z,1002.18
2019-01-21T01:26:27.855Z,1002.18
2019-01-21T01:27:33.693Z,1002.18
2019-01-21T01:28:39.615Z,1002.22
2019-01-21T01:29:45.399Z,1002.21
2019-01-21T01:30:51.252Z,1002.21
2019-01-21T01:31:57.096Z,1002.24
2019-01-21T01:33:02.942Z,1002.25
2019-01-21T01:34:08.789Z,1002.27
2019-01-21T01:35:14.684Z,1002.29
2019-01-21T01:36:20.492Z,1002.32
2019-01-21T01:37:26.326Z,1002.34
2019-01-21T01:38:32.185Z,1002.35
2019-01-21T01:39:38.025Z,1002.37
2019-01-21T01:40:43.872Z,1002.37
2019-01-21T01:41:49.694Z,1002.36
2019-01-21T01:42:55.617Z,1002.38
2019-01-21T01:44:01.388Z,1002.43
2019-01-21T01:45:07.216Z,1002.42
2019-01-21T01:46:13.053Z,1002.43
2019-01-21T01:47:18.890Z,1002.46
2019-01-21T01:48:24.746Z,1002.50
2019-01-21T01:49:30.556Z,1002.54
2019-01-21T01:50:36.391Z,1002.50
2019-01-21T01:51:42.229Z,1002.54
2019-01-21T01:52:48.066Z,1002.52
2019-01-21T01:53:53.907Z,1002.57
2019-01-21T01:54:59.753Z,1002.61
2019-01-21T01:56:06.540Z,1002.58
2019-01-21T01:57:11.389Z,1002.61
2019-01-21T01:58:17.212Z,1002.58
2019-01-21T01:59:23.053Z,1002.62
2019-01-21T02:00:28.868Z,1002.63
2019-01-21T02:01:34.686Z,1002.65
2019-01-21T02:02:40.530Z,1002.64
2019-01-21T02:03:46.353Z,1002.66
2019-01-21T02:04:52.175Z,1002.65
2019-01-21T02:05:58.008Z,1002.65
2019-01-21T02:07:03.827Z,1002.68
2019-01-21T02:08:09.640Z,1002.71
2019-01-21T02:09:15.612Z,1002.68
2019-01-21T02:10:21.319Z,1002.73
2019-01-21T02:11:27.112Z,1002.73
2019-01-21T02:12:32.951Z,1002.73
2019-01-21T02:13:38.561Z,1002.72
2019-01-21T02:14:44.590Z,1002.71
2019-01-21T02:15:50.401Z,1002.75
2019-01-21T02:16:56.231Z,1002.76
2019-01-21T02:18:02.018Z,1002.76
2019-01-21T02:19:07.853Z,1002.81
2019-01-21T02:20:13.658Z,1002.81
2019-01-21T02:21:19.608Z,1002.84
2019-01-21T02:22:25.305Z,1002.83
2019-01-21T02:23:31.130Z,1002.82
2019-01-21T02:24:36.929Z,1002.84
2019-01-21T02:25:42.744Z,1002.83
2019-01-21T02:26:48.552Z,1002.81
2019-01-21T02:27:54.360Z,1002.81
2019-01-21T02:29:00.175Z,1002.81
2019-01-21T02:30:05.995Z,1002.82
2019-01-21T02:31:11.783Z,1002.80
2019-01-21T02:32:17.644Z,1002.76
2019-01-21T02:33:23.418Z,1002.81
2019-01-21T02:34:29.227Z,1002.77
2019-01-21T02:35:35.056Z,1002.82
2019-01-21T02:36:40.852Z,1002.87
2019-01-21T02:37:46.635Z,1002.85
2019-01-21T02:38:52.454Z,1002.82
2019-01-21T02:39:59.250Z,1002.81
2019-01-21T02:41:04.068Z,1002.84
2019-01-21T02:42:09.866Z,1002.82
2019-01-21T02:43:15.669Z,1002.85
2019-01-21T02:44:21.468Z,1002.84
2019-01-21T02:45:27.574Z,1002.89
2019-01-21T02:46:33.082Z,1002.85
2019-01-21T02:47:38.912Z,1002.84
2019-01-21T02:48:44.670Z,1002.84
2019-01-21T02:49:51.631Z,1002.85
2019-01-21T02:50:56.274Z,1002.83
2019-01-21T02:52:02.077Z,1002.82
2019-01-21T02:53:07.870Z,1002.85
2019-01-21T02:54:13.667Z,1002.87
2019-01-21T02:55:19.643Z,1002.80
2019-01-21T02:56:25.265Z,1002.81
2019-01-21T02:57:31.060Z,1002.82
2019-01-21T02:58:36.839Z,1002.82
2019-01-21T02:59:42.660Z,1002.85
2019-01-21T03:00:48.443Z,1002.84
2019-01-21T03:01:54.243Z,1002.84
2019-01-21T03:03:00.027Z,1002.85
2019-01-21T03:04:05.837Z,1002.85
2019-01-21T03:05:11.613Z,1002.83
2019-01-21T03:06:17.411Z,1002.84
2019-01-21T03:07:23.191Z,1002.79
2019-01-21T03:08:28.992Z,1002.80
2019-01-21T03:09:34.780Z,1002.81
2019-01-21T03:10:40.579Z,1002.80
2019-01-21T03:11:46.360Z,1002.77
2019-01-21T03:12:52.161Z,1002.74
2019-01-21T03:13:57.958Z,1002.76
2019-01-21T03:18:08.044Z,1002.72
2019-01-21T03:19:10.008Z,1002.74
2019-01-21T03:20:16.288Z,1002.72
2019-01-21T03:21:22.061Z,1002.73
2019-01-21T03:22:27.870Z,1002.77
2019-01-21T03:23:33.658Z,1002.77
2019-01-21T03:24:39.433Z,1002.73
2019-01-21T03:25:45.214Z,1002.77
2019-01-21T03:26:50.996Z,1002.78
2019-01-21T03:27:56.791Z,1002.79
2019-01-21T03:29:02.550Z,1002.73
2019-01-21T03:30:08.340Z,1002.74
2019-01-21T03:31:14.123Z,1002.75
2019-01-21T03:32:19.901Z,1002.74
2019-01-21T03:33:26.916Z,1002.77
2019-01-21T03:34:31.618Z,1002.78
2019-01-21T03:35:37.242Z,1002.79
2019-01-21T03:36:44.041Z,1002.76
2019-01-21T03:37:48.811Z,1002.80
2019-01-21T03:38:54.607Z,1002.78
2019-01-21T03:40:00.674Z,1002.79
2019-01-21T03:41:06.150Z,1002.80
2019-01-21T03:42:11.943Z,1002.81
2019-01-21T03:43:17.716Z,1002.82
2019-01-21T03:44:23.481Z,1002.84
2019-01-21T03:45:29.270Z,1002.82
2019-01-21T03:46:35.021Z,1002.84
2019-01-21T03:47:40.828Z,1002.83
2019-01-21T03:48:46.591Z,1002.82
2019-01-21T03:49:52.370Z,1002.81
2019-01-21T03:50:58.133Z,1002.79
2019-01-21T03:52:04.929Z,1002.83
2019-01-21T03:53:09.694Z,1002.80
2019-01-21T03:54:15.603Z,1002.86
2019-01-21T03:55:21.704Z,1002.87
2019-01-21T03:56:27.025Z,1002.87
2019-01-21T03:57:32.811Z,1002.91
2019-01-21T03:58:38.586Z,1002.90
2019-01-21T03:59:44.355Z,1002.91
2019-01-21T04:00:50.129Z,1002.89
2019-01-21T04:01:55.929Z,1002.89
2019-01-21T04:03:01.695Z,1002.88
2019-01-21T04:04:07.455Z,1002.90
2019-01-21T04:05:14.244Z,1002.86
2019-01-21T04:06:19.008Z,1002.87
2019-01-21T04:07:24.814Z,1002.87
2019-01-21T04:08:30.569Z,1002.87
2019-01-21T04:09:36.342Z,1002.84
2019-01-21T04:10:42.119Z,1002.93
2019-01-21T04:11:48.894Z,1002.86
2019-01-21T04:12:53.685Z,1002.88
2019-01-21T04:14:00.427Z,1002.86
2019-01-21T04:15:05.219Z,1002.92
2019-01-21T04:16:11.040Z,1002.87
2019-01-21T04:17:17.755Z,1002.88
2019-01-21T04:18:24.593Z,1002.90
2019-01-21T04:19:28.317Z,1002.88
2019-01-21T04:20:34.106Z,1002.88
2019-01-21T04:21:39.870Z,1002.89
2019-01-21T04:22:45.640Z,1002.90
2019-01-21T04:23:51.451Z,1002.90
2019-01-21T04:24:58.212Z,1002.85
2019-01-21T04:26:02.965Z,1002.88
2019-01-21T04:27:08.749Z,1002.87
2019-01-21T04:28:14.521Z,1002.88
2019-01-21T04:29:20.318Z,1002.88
2019-01-21T04:30:26.085Z,1002.90
2019-01-21T04:31:31.852Z,1002.91
2019-01-21T04:32:37.659Z,1002.88
2019-01-21T04:33:43.408Z,1002.91
2019-01-21T04:34:49.185Z,1002.90
2019-01-21T04:35:54.965Z,1002.94
2019-01-21T04:37:00.731Z,1002.94
2019-01-21T04:38:06.015Z,1002.85
2019-01-21T04:39:12.596Z,1002.88
2019-01-21T04:40:18.084Z,1002.88
2019-01-21T04:41:23.845Z,1002.89
2019-01-21T04:42:29.640Z,1002.93
2019-01-21T04:43:35.411Z,1002.84
2019-01-21T04:44:41.183Z,1002.89
2019-01-21T04:45:46.969Z,1002.91
2019-01-21T04:46:52.740Z,1002.93
2019-01-21T04:47:58.517Z,1002.91
2019-01-21T04:49:04.286Z,1002.95
2019-01-21T04:50:10.074Z,1002.94
2019-01-21T04:51:15.840Z,1002.95
2019-01-21T04:52:21.639Z,1002.96
2019-01-21T04:53:27.413Z,1002.96
2019-01-21T04:54:33.208Z,1002.97
2019-01-21T04:55:38.977Z,1002.94
2019-01-21T04:56:44.757Z,1002.91
2019-01-21T04:57:50.558Z,1002.91
2019-01-21T04:58:55.854Z,1002.93
2019-01-21T05:00:02.131Z,1002.93
2019-01-21T05:01:08.918Z,1002.92
2019-01-21T05:02:13.712Z,1002.90
2019-01-21T05:03:19.604Z,1002.90
2019-01-21T05:04:25.307Z,1002.90
2019-01-21T05:05:31.085Z,1002.93
2019-01-21T05:06:36.869Z,1002.90
2019-01-21T05:07:42.672Z,1002.92
2019-01-21T05:08:48.459Z,1002.91
2019-01-21T05:09:54.307Z,1002.90
2019-01-21T05:11:00.054Z,1002.90
2019-01-21T05:12:05.862Z,1002.90
2019-01-21T05:13:11.662Z,1002.94
2019-01-21T05:14:17.445Z,1002.96
2019-01-21T05:15:23.247Z,1002.95
2019-01-21T05:16:29.038Z,1002.99
2019-01-21T05:17:35.843Z,1003.02
2019-01-21T05:18:41.364Z,1003.00
2019-01-21T05:19:46.445Z,1002.95
2019-01-21T05:20:52.247Z,1002.99
2019-01-21T05:21:58.058Z,1003.01
2019-01-21T05:23:04.850Z,1003.02
2019-01-21T05:24:09.644Z,1003.06
2019-01-21T05:25:15.618Z,1003.05
2019-01-21T05:26:21.309Z,1003.01
2019-01-21T05:27:27.076Z,1003.05
2019-01-21T05:28:32.932Z,1003.03
2019-01-21T05:29:39.698Z,1003.06
2019-01-21T05:30:44.529Z,1003.02
2019-01-21T05:31:50.338Z,1003.04
2019-01-21T05:32:56.173Z,1003.00
2019-01-21T05:34:01.981Z,1003.01
2019-01-21T05:35:07.801Z,1003.00
2019-01-21T05:36:13.624Z,1002.99
2019-01-21T05:37:19.887Z,1003.00
2019-01-21T05:38:25.260Z,1002.94
2019-01-21T05:39:31.087Z,1002.96
2019-01-21T05:40:36.890Z,1002.94
2019-01-21T05:41:42.723Z,1002.98
2019-01-21T05:42:48.528Z,1002.94
2019-01-21T05:43:54.368Z,1002.99
2019-01-21T05:45:00.269Z,1002.94
2019-01-21T05:46:06.005Z,1002.96
2019-01-21T05:47:11.831Z,1002.98
2019-01-21T05:48:17.637Z,1002.98
2019-01-21T05:49:23.602Z,1003.00
2019-01-21T05:50:29.285Z,1003.01
2019-01-21T05:51:35.129Z,1003.00
2019-01-21T05:52:40.996Z,1003.02
2019-01-21T05:53:46.769Z,1003.00
2019-01-21T05:54:52.586Z,1002.98
2019-01-21T05:55:58.415Z,1002.99
2019-01-21T05:57:04.236Z,1002.98
2019-01-21T05:58:10.080Z,1002.98
2019-01-21T05:59:15.892Z,1002.94
2019-01-21T06:00:21.720Z,1002.96
2019-01-21T06:01:27.620Z,1002.98
2019-01-21T06:05:27.250Z,1002.98
2019-01-21T06:06:31.546Z,1002.98
2019-01-21T06:07:37.893Z,1002.96
2019-01-21T06:08:44.696Z,1002.98
2019-01-21T06:09:49.622Z,1002.95
2019-01-21T06:10:55.342Z,1002.94
2019-01-21T06:12:01.171Z,1002.94
2019-01-21T06:13:07.014Z,1002.95
2019-01-21T06:14:12.813Z,1002.95
2019-01-21T06:15:18.640Z,1002.97
2019-01-21T06:16:24.470Z,1002.98
2019-01-21T06:17:30.304Z,1003.00
2019-01-21T06:18:36.115Z,1002.99
2019-01-21T06:19:41.933Z,1002.99
2019-01-21T06:20:47.759Z,1003.00
2019-01-21T06:21:53.619Z,1002.96
2019-01-21T06:22:59.408Z,1002.94
2019-01-21T06:24:05.615Z,1002.96
2019-01-21T06:25:11.032Z,1002.96
2019-01-21T06:26:18.707Z,1002.98
2019-01-21T06:27:22.685Z,1002.96
2019-01-21T06:28:28.863Z,1002.93
2019-01-21T06:29:34.303Z,1002.95
2019-01-21T06:30:40.140Z,1002.99
2019-01-21T06:31:45.934Z,1002.93
2019-01-21T06:32:51.764Z,1002.99
2019-01-21T06:33:57.661Z,1003.00
2019-01-21T06:35:03.412Z,1002.99
2019-01-21T06:36:09.252Z,1002.95
2019-01-21T06:37:15.370Z,1003.00
2019-01-21T06:38:21.238Z,1003.00
2019-01-21T06:39:26.686Z,1003.01
2019-01-21T06:40:32.496Z,1002.99
2019-01-21T06:41:38.302Z,1002.97
2019-01-21T06:42:44.127Z,1002.96
2019-01-21T06:43:49.945Z,1003.01
2019-01-21T06:44:55.755Z,1002.97
2019-01-21T06:46:01.964Z,1002.98
2019-01-21T06:47:07.396Z,1003.02
2019-01-21T06:48:13.214Z,1003.04
2019-01-21T06:49:19.025Z,1003.03
2019-01-21T06:50:24.839Z,1003.05
2019-01-21T06:51:30.648Z,1003.04
2019-01-21T06:52:36.461Z,1003.02
2019-01-21T06:53:42.284Z,1003.01
2019-01-21T06:54:48.096Z,1003.05
2019-01-21T06:55:53.906Z,1003.11
2019-01-21T06:56:59.726Z,1003.05
2019-01-21T06:58:05.626Z,1002.97
2019-01-21T06:59:11.355Z,1003.06
2019-01-21T07:00:17.173Z,1003.10
2019-01-21T07:01:23.028Z,1003.07
2019-01-21T07:03:35.957Z,1003.15
2019-01-21T07:04:40.472Z,1003.12
2019-01-21T07:05:46.279Z,1003.17
2019-01-21T07:07:57.941Z,1003.15
2019-01-21T07:09:03.768Z,1003.21
2019-01-21T07:10:09.610Z,1003.20
2019-01-21T07:11:15.431Z,1003.21
2019-01-21T07:12:21.252Z,1003.23
2019-01-21T07:13:27.081Z,1003.17
2019-01-21T07:14:33.908Z,1003.26
2019-01-21T07:15:38.751Z,1003.25
2019-01-21T07:16:45.613Z,1003.27
2019-01-21T07:17:50.413Z,1003.25
2019-01-21T07:18:56.252Z,1003.29
2019-01-21T07:20:02.076Z,1003.32
2019-01-21T07:21:07.913Z,1003.31
2019-01-21T07:22:13.754Z,1003.28
2019-01-21T07:23:19.621Z,1003.31
2019-01-21T07:24:25.476Z,1003.33
2019-01-21T07:25:31.290Z,1003.35
2019-01-21T07:26:37.134Z,1003.32
2019-01-21T07:27:42.980Z,1003.29
2019-01-21T07:28:49.901Z,1003.32
2019-01-21T07:29:54.689Z,1003.36
2019-01-21T07:31:00.994Z,1003.36
2019-01-21T07:32:06.373Z,1003.35
2019-01-21T07:33:12.206Z,1003.34
2019-01-21T07:34:18.060Z,1003.35
2019-01-21T07:35:23.928Z,1003.43
2019-01-21T07:36:29.763Z,1003.40
2019-01-21T07:37:35.627Z,1003.39
2019-01-21T07:38:41.613Z,1003.34
2019-01-21T07:39:47.345Z,1003.33
2019-01-21T07:40:53.183Z,1003.37
2019-01-21T07:41:59.033Z,1003.28
2019-01-21T07:43:04.927Z,1003.29
2019-01-21T07:44:10.760Z,1003.32
2019-01-21T07:45:16.623Z,1003.27
2019-01-21T07:46:22.482Z,1003.29
2019-01-21T07:47:28.990Z,1003.29
2019-01-21T07:48:34.218Z,1003.31
2019-01-21T07:49:40.055Z,1003.32
2019-01-21T07:50:45.958Z,1003.33
2019-01-21T07:51:51.808Z,1003.33
2019-01-21T07:52:57.698Z,1003.35
2019-01-21T07:54:03.613Z,1003.37
2019-01-21T07:55:09.413Z,1003.35
2019-01-21T07:56:15.287Z,1003.38
2019-01-21T07:57:21.157Z,1003.37
2019-01-21T07:58:27.046Z,1003.36
2019-01-21T07:59:32.918Z,1003.35
2019-01-21T08:00:38.812Z,1003.43
2019-01-21T08:01:44.688Z,1003.35
2019-01-21T08:02:50.570Z,1003.39
2019-01-21T08:03:56.459Z,1003.36
2019-01-21T08:05:02.343Z,1003.35
2019-01-21T08:06:08.239Z,1003.35
2019-01-21T08:07:14.107Z,1003.38
2019-01-21T08:08:20.004Z,1003.35
2019-01-21T08:09:25.888Z,1003.38
2019-01-21T08:10:31.791Z,1003.34
2019-01-21T08:11:37.649Z,1003.32
2019-01-21T08:12:43.606Z,1003.36
2019-01-21T08:13:49.738Z,1003.30
2019-01-21T08:14:55.299Z,1003.30
2019-01-21T08:18:54.178Z,1003.37
2019-01-21T08:20:00.083Z,1003.38
2019-01-21T08:21:05.976Z,1003.36
2019-01-21T08:22:11.821Z,1003.39
2019-01-21T08:23:17.710Z,1003.37
2019-01-21T08:24:23.642Z,1003.40
2019-01-21T08:25:29.620Z,1003.41
2019-01-21T08:26:35.375Z,1003.41
2019-01-21T08:27:41.287Z,1003.44
2019-01-21T08:28:47.132Z,1003.42
2019-01-21T08:29:53.026Z,1003.39
2019-01-21T08:30:58.903Z,1003.41
2019-01-21T08:32:05.066Z,1003.42
2019-01-21T08:33:10.656Z,1003.40
2019-01-21T08:34:16.553Z,1003.43
2019-01-21T08:35:21.961Z,1003.45
2019-01-21T08:36:28.329Z,1003.43
2019-01-21T08:37:34.229Z,1003.43
2019-01-21T08:38:40.125Z,1003.43
2019-01-21T08:39:46.053Z,1003.39
2019-01-21T08:40:51.888Z,1003.39
2019-01-21T08:41:57.801Z,1003.37
2019-01-21T08:43:03.678Z,1003.40
2019-01-21T08:44:10.034Z,1003.43
2019-01-21T08:45:15.612Z,1003.42
2019-01-21T08:46:22.359Z,1003.42
2019-01-21T08:47:27.273Z,1003.43
2019-01-21T08:48:33.179Z,1003.42
2019-01-21T08:49:39.060Z,1003.42
2019-01-21T08:50:44.994Z,1003.43
2019-01-21T08:51:50.854Z,1003.44
2019-01-21T08:52:57.885Z,1003.46
2019-01-21T08:54:02.647Z,1003.42
2019-01-21T08:55:08.553Z,1003.43
2019-01-21T08:56:14.453Z,1003.41
2019-01-21T08:57:20.396Z,1003.42
2019-01-21T08:58:26.277Z,1003.42
2019-01-21T08:59:32.167Z,1003.43
2019-01-21T09:00:38.102Z,1003.43
2019-01-21T09:01:44.015Z,1003.42
2019-01-21T09:02:49.903Z,1003.44
2019-01-21T09:03:55.803Z,1003.45
2019-01-21T09:05:01.720Z,1003.40
2019-01-21T09:06:08.933Z,1003.37
2019-01-21T09:07:13.905Z,1003.33
2019-01-21T09:08:19.438Z,1003.33
2019-01-21T09:09:25.337Z,1003.32
2019-01-21T09:10:31.254Z,1003.28
2019-01-21T09:11:37.170Z,1003.25
2019-01-21T09:12:44.064Z,1003.28
2019-01-21T09:13:49.012Z,1003.26
2019-01-21T09:14:54.897Z,1003.23
2019-01-21T09:16:01.807Z,1003.21
2019-01-21T09:17:07.731Z,1003.19
2019-01-21T09:18:16.135Z,1003.19
2019-01-21T09:19:26.800Z,1003.17
2019-01-21T09:20:32.721Z,1003.16
2019-01-21T09:21:38.137Z,1003.16
2019-01-21T09:22:44.612Z,1003.09
2019-01-21T09:23:50.482Z,1003.06
2019-01-21T09:24:56.409Z,1003.02
2019-01-21T09:26:02.303Z,1003.04
2019-01-21T09:27:08.241Z,1003.04
2019-01-21T09:28:14.141Z,1003.02
2019-01-21T09:29:20.087Z,1003.02
2019-01-21T09:30:27.019Z,1003.00
2019-01-21T09:31:31.911Z,1003.01
2019-01-21T09:32:37.840Z,1002.97
2019-01-21T09:33:43.818Z,1002.94
2019-01-21T09:34:50.676Z,1002.91
2019-01-21T09:35:55.708Z,1002.87
2019-01-21T09:37:01.612Z,1002.84
2019-01-21T09:38:07.455Z,1002.75
2019-01-21T09:39:13.377Z,1002.77
2019-01-21T09:40:19.303Z,1002.73
2019-01-21T09:44:18.351Z,1002.63
2019-01-21T09:45:27.221Z,1002.53
2019-01-21T09:46:30.197Z,1002.47
2019-01-21T09:47:37.114Z,1002.44
2019-01-21T09:48:42.232Z,1002.39
2019-01-21T09:49:48.041Z,1002.40
2019-01-21T09:50:53.915Z,1002.36
2019-01-21T09:51:59.845Z,1002.28
2019-01-21T09:53:05.785Z,1002.25
2019-01-21T09:54:11.715Z,1002.24
2019-01-21T09:55:17.652Z,1002.20
2019-01-21T09:56:23.564Z,1002.13
2019-01-21T09:57:29.611Z,1002.09
2019-01-21T09:58:35.629Z,1002.12
2019-01-21T09:59:41.671Z,1002.08
2019-01-21T10:00:47.307Z,1002.12
2019-01-21T10:01:53.244Z,1002.08
2019-01-21T10:02:59.187Z,1002.10
2019-01-21T10:04:05.565Z,1002.07
2019-01-21T10:05:12.028Z,1002.04
2019-01-21T10:06:17.002Z,1002.02
2019-01-21T10:07:22.919Z,1001.94
2019-01-21T10:08:28.898Z,1001.89
2019-01-21T10:09:34.807Z,1001.88
2019-01-21T10:10:40.930Z,1001.92
2019-01-21T10:11:46.706Z,1001.90
2019-01-21T10:12:52.628Z,1001.84
2019-01-21T10:13:58.582Z,1001.83
2019-01-21T10:15:05.619Z,1001.84
2019-01-21T10:16:10.444Z,1001.79
2019-01-21T10:17:16.397Z,1001.74
2019-01-21T10:18:23.336Z,1001.73
2019-01-21T10:19:28.282Z,1001.66
2019-01-21T10:20:34.228Z,1001.61
2019-01-21T10:21:40.172Z,1001.62
2019-01-21T10:22:46.120Z,1001.58
2019-01-21T10:23:53.049Z,1001.63
2019-01-21T10:24:58.008Z,1001.65
2019-01-21T10:26:03.942Z,1001.68
2019-01-21T10:27:09.888Z,1001.68
2019-01-21T10:28:15.839Z,1001.60
2019-01-21T10:29:21.789Z,1001.61
2019-01-21T10:30:27.771Z,1001.61
2019-01-21T10:31:33.692Z,1001.53
2019-01-21T10:32:39.646Z,1001.53
2019-01-21T10:33:45.635Z,1001.52
2019-01-21T10:34:51.614Z,1001.46
2019-01-21T10:35:57.603Z,1001.35
2019-01-21T10:37:03.445Z,1001.25
2019-01-21T10:38:10.389Z,1001.25
2019-01-21T10:39:15.423Z,1001.20
2019-01-21T10:40:22.295Z,1001.24
2019-01-21T10:41:27.286Z,1001.19
2019-01-21T10:42:33.212Z,1001.22
2019-01-21T10:43:39.165Z,1001.21
2019-01-21T10:44:45.133Z,1001.22
2019-01-21T10:45:51.061Z,1001.18
2019-01-21T10:46:57.034Z,1001.16
2019-01-21T10:48:02.995Z,1001.10
2019-01-21T10:49:08.967Z,1001.09
2019-01-21T10:50:14.897Z,1001.11
2019-01-21T10:51:20.862Z,1001.04
2019-01-21T10:52:26.819Z,1000.99
2019-01-21T10:53:32.783Z,1000.94
2019-01-21T10:54:38.756Z,1000.95
2019-01-21T10:55:44.719Z,1000.95
2019-01-21T10:56:50.673Z,1000.89
2019-01-21T10:57:56.635Z,1000.91
2019-01-21T10:59:02.712Z,1000.95
2019-01-21T11:00:08.574Z,1000.91
2019-01-21T11:01:14.540Z,1000.86
2019-01-21T11:02:20.609Z,1000.75
2019-01-21T11:03:27.614Z,1000.74
2019-01-21T11:04:32.459Z,1000.74
2019-01-21T11:05:38.424Z,1000.66
2019-01-21T11:06:44.390Z,1000.66
2019-01-21T11:07:51.339Z,1000.66
2019-01-21T11:08:56.333Z,1000.56
2019-01-21T11:10:02.289Z,1000.56
2019-01-21T11:11:08.274Z,1000.62
2019-01-21T11:12:14.231Z,1000.54
2019-01-21T11:13:20.225Z,1000.52
2019-01-21T11:14:26.166Z,1000.54
2019-01-21T11:15:32.153Z,1000.54
2019-01-21T11:16:38.129Z,1000.49
2019-01-21T11:17:44.110Z,1000.48
2019-01-21T11:18:51.069Z,1000.44
2019-01-21T11:19:56.078Z,1000.44
2019-01-21T11:21:02.032Z,1000.41
2019-01-21T11:22:08.012Z,1000.28
2019-01-21T11:23:13.964Z,1000.26
2019-01-21T11:27:13.198Z,1000.24
2019-01-21T11:28:19.194Z,1000.23
2019-01-21T11:29:25.160Z,1000.16
2019-01-21T11:30:31.147Z,1000.07
2019-01-21T11:31:37.111Z,999.89
2019-01-21T11:32:43.090Z,999.89
2019-01-21T11:33:49.079Z,999.86
2019-01-21T11:34:55.521Z,999.82
2019-01-21T11:36:01.048Z,999.88
2019-01-21T11:37:07.021Z,999.87
2019-01-21T11:38:13.015Z,999.91
2019-01-21T11:39:19.011Z,999.86
2019-01-21T11:40:25.016Z,999.85
2019-01-21T11:41:31.007Z,999.89
2019-01-21T11:42:37.009Z,999.97
2019-01-21T11:43:44.033Z,1000.00
2019-01-21T11:44:49.060Z,999.96
2019-01-21T11:45:57.875Z,999.99
2019-01-21T11:47:01.153Z,999.94
2019-01-21T11:48:07.210Z,999.88
2019-01-21T11:49:13.272Z,999.78
2019-01-21T11:50:19.363Z,999.76
2019-01-21T11:51:26.433Z,999.76
2019-01-21T11:52:31.619Z,999.63
2019-01-21T11:53:37.621Z,999.49
2019-01-21T11:54:43.726Z,999.46
2019-01-21T11:55:49.878Z,999.40
2019-01-21T11:56:56.972Z,999.34
2019-01-21T11:58:02.117Z,999.33
2019-01-21T11:59:08.235Z,999.35
2019-01-21T12:00:14.354Z,999.33
2019-01-21T12:01:20.552Z,999.25
2019-01-21T12:02:26.647Z,999.17
2019-01-21T12:03:32.790Z,999.18
2019-01-21T12:04:38.944Z,999.08
2019-01-21T12:05:45.113Z,999.21
2019-01-21T12:06:51.277Z,999.27
2019-01-21T12:07:57.442Z,999.31
2019-01-21T12:09:03.614Z,999.07
2019-01-21T12:10:09.772Z,998.76
2019-01-21T12:11:15.957Z,998.31
2019-01-21T12:12:22.123Z,997.81
2019-01-21T12:13:28.305Z,997.22
2019-01-21T12:14:34.510Z,996.99
2019-01-21T12:15:40.662Z,996.70
2019-01-21T12:16:46.874Z,996.46
2019-01-21T12:17:53.042Z,996.68
2019-01-21T12:18:59.305Z,996.77
2019-01-21T12:20:05.884Z,996.79
2019-01-21T12:21:12.565Z,996.86
2019-01-21T12:22:17.860Z,996.48
2019-01-21T12:23:24.036Z,996.20
2019-01-21T12:24:30.238Z,996.16
2019-01-21T12:25:36.433Z,996.07
2019-01-21T12:26:42.645Z,995.64
2019-01-21T12:27:48.863Z,995.90
2019-01-21T12:28:55.051Z,996.11
2019-01-21T12:30:01.283Z,996.00
2019-01-21T12:31:07.624Z,996.15
2019-01-21T12:32:13.711Z,996.27
2019-01-21T12:33:19.940Z,996.20
2019-01-21T12:34:25.673Z,996.11
2019-01-21T12:35:32.386Z,995.96
2019-01-21T12:36:38.620Z,995.35
2019-01-21T12:37:44.858Z,995.41
2019-01-21T12:38:51.082Z,995.72
2019-01-21T12:39:57.311Z,995.47
2019-01-21T12:41:03.617Z,995.45
2019-01-21T12:42:09.288Z,995.89
2019-01-21T12:43:16.509Z,996.03
2019-01-21T12:44:22.250Z,996.29
2019-01-21T12:45:28.479Z,996.39
2019-01-21T12:46:35.700Z,996.45
2019-01-21T12:47:42.972Z,996.43
2019-01-21T12:48:47.197Z,996.09
2019-01-21T12:49:53.433Z,995.86
2019-01-21T12:50:59.647Z,995.84
2019-01-21T12:52:06.893Z,995.47
2019-01-21T12:53:12.181Z,995.52
2019-01-21T12:54:18.432Z,995.52
2019-01-21T12:55:24.658Z,995.52
2019-01-21T12:56:30.405Z,995.13
2019-01-21T12:57:37.153Z,995.28
2019-01-21T12:58:43.404Z,995.52
2019-01-21T12:59:49.675Z,995.54
2019-01-21T13:00:55.934Z,995.48
2019-01-21T13:02:03.188Z,995.17
2019-01-21T13:03:09.616Z,994.78
2019-01-21T13:04:14.728Z,994.70
2019-01-21T13:05:22.014Z,994.62
2019-01-21T13:06:27.270Z,994.61
2019-01-21T13:07:33.620Z,994.66
2019-01-21T13:08:40.812Z,995.02
2019-01-21T13:09:46.096Z,995.23
2019-01-21T13:10:52.354Z,995.29
2019-01-21T13:11:58.633Z,994.75
2019-01-21T13:13:04.911Z,994.74
2019-01-21T13:14:11.180Z,994.82
2019-01-21T13:15:17.613Z,994.51
2019-01-21T13:16:25.206Z,994.26
2019-01-21T13:17:30.032Z,993.94
2019-01-21T13:18:36.361Z,994.13
2019-01-21T13:19:42.617Z,994.59
2019-01-21T13:20:48.913Z,994.77
2019-01-21T13:21:55.231Z,994.31
2019-01-21T13:23:01.630Z,994.15
2019-01-21T13:24:08.823Z,994.09
2019-01-21T13:25:15.102Z,994.29
2019-01-21T13:26:20.421Z,994.39
2019-01-21T13:27:26.720Z,994.59
2019-01-21T13:28:33.032Z,994.53
2019-01-21T13:29:39.344Z,994.57
2019-01-21T13:30:45.638Z,994.87
2019-01-21T13:31:51.959Z,994.78
2019-01-21T13:32:58.257Z,994.39
2019-01-21T13:34:04.583Z,994.33
2019-01-21T13:35:10.923Z,994.34
2019-01-21T13:36:17.241Z,994.56
2019-01-21T13:37:24.537Z,994.49
2019-01-21T13:38:29.904Z,993.92